createdAt,value
2023-01-13T00:00:07.272Z,14.40
2023-01-13T00:01:07.156Z,13.90
2023-01-13T00:02:07.233Z,14.00
2023-01-13T00:03:07.116Z,17.00
2023-01-13T00:04:07.115Z,14.40
2023-01-13T00:05:07.229Z,16.20
2023-01-13T00:06:07.122Z,12.90
2023-01-13T00:07:07.097Z,13.10
2023-01-13T00:08:07.076Z,12.40
2023-01-13T00:09:07.060Z,12.50
2023-01-13T00:10:07.037Z,11.80
2023-01-13T00:11:07.045Z,12.30
2023-01-13T00:12:07.020Z,14.50
2023-01-13T00:13:07.005Z,14.40
2023-01-13T00:14:07.009Z,18.10
2023-01-13T00:15:06.968Z,12.90
2023-01-13T00:16:07.113Z,13.00
2023-01-13T00:17:06.967Z,12.10
2023-01-13T00:18:06.925Z,12.00
2023-01-13T00:19:06.918Z,12.50
2023-01-13T00:20:06.906Z,12.20
2023-01-13T00:21:06.907Z,12.70
2023-01-13T00:22:06.904Z,11.50
2023-01-13T00:23:06.910Z,13.80
2023-01-13T00:24:06.858Z,13.80
2023-01-13T00:25:06.865Z,12.60
2023-01-13T00:26:06.842Z,13.80
2023-01-13T00:27:06.841Z,12.90
2023-01-13T00:28:06.802Z,14.50
2023-01-13T00:29:06.792Z,13.10
2023-01-13T00:30:06.778Z,14.90
2023-01-13T00:31:06.821Z,16.40
2023-01-13T00:32:06.788Z,14.90
2023-01-13T00:33:06.724Z,13.00
2023-01-13T00:34:06.722Z,11.80
2023-01-13T00:35:06.707Z,12.30
2023-01-13T00:36:06.714Z,13.70
2023-01-13T00:37:06.702Z,13.30
2023-01-13T00:38:06.679Z,12.40
2023-01-13T00:39:06.668Z,14.00
2023-01-13T00:40:06.635Z,13.30
2023-01-13T00:41:06.641Z,13.30
2023-01-13T00:42:06.655Z,15.00
2023-01-13T00:43:06.707Z,24.20
2023-01-13T00:44:06.616Z,20.60
2023-01-13T00:45:06.579Z,19.00
2023-01-13T00:46:06.668Z,16.70
2023-01-13T00:47:06.559Z,15.30
2023-01-13T00:48:06.561Z,15.90
2023-01-13T00:49:06.520Z,15.20
2023-01-13T00:50:06.511Z,11.90
2023-01-13T00:51:06.498Z,13.10
2023-01-13T00:52:06.486Z,12.20
2023-01-13T00:53:06.519Z,11.00
2023-01-13T00:54:06.464Z,12.30
2023-01-13T00:55:06.442Z,13.50
2023-01-13T00:56:06.443Z,13.30
2023-01-13T00:57:06.451Z,13.50
2023-01-13T00:58:06.419Z,15.10
2023-01-13T00:59:06.398Z,15.10
2023-01-13T01:00:06.387Z,15.20
2023-01-13T01:01:06.541Z,16.20
2023-01-13T01:02:06.539Z,13.90
2023-01-13T01:03:06.345Z,13.60
2023-01-13T01:04:06.331Z,14.50
2023-01-13T01:05:06.309Z,12.30
2023-01-13T01:06:06.296Z,11.60
2023-01-13T01:07:06.285Z,11.90
2023-01-13T01:08:06.302Z,10.90
2023-01-13T01:09:06.273Z,10.80
2023-01-13T01:10:06.245Z,9.20
2023-01-13T01:11:06.239Z,9.30
2023-01-13T01:12:06.239Z,8.60
2023-01-13T01:13:06.245Z,10.20
2023-01-13T01:14:06.203Z,9.90
2023-01-13T01:15:06.194Z,9.20
2023-01-13T01:16:06.213Z,8.80
2023-01-13T01:17:06.166Z,9.80
2023-01-13T01:18:06.181Z,9.70
2023-01-13T01:19:06.160Z,11.60
2023-01-13T01:20:06.111Z,9.20
2023-01-13T01:21:06.144Z,9.20
2023-01-13T01:22:06.100Z,10.50
2023-01-13T01:23:06.095Z,9.50
2023-01-13T01:24:06.079Z,9.90
2023-01-13T01:25:06.049Z,11.30
2023-01-13T01:26:06.078Z,10.60
2023-01-13T01:27:06.068Z,9.80
2023-01-13T01:28:06.043Z,11.30
2023-01-13T01:29:05.999Z,9.10
2023-01-13T01:30:05.996Z,9.20
2023-01-13T01:31:06.007Z,9.00
2023-01-13T01:32:05.985Z,7.60
2023-01-13T01:33:05.989Z,7.80
2023-01-13T01:34:05.939Z,8.60
2023-01-13T01:35:05.941Z,7.70
2023-01-13T01:36:05.915Z,8.40
2023-01-13T01:37:05.961Z,9.00
2023-01-13T01:38:05.931Z,9.30
2023-01-13T01:39:05.878Z,9.80
2023-01-13T01:40:05.888Z,8.90
2023-01-13T01:41:05.842Z,7.90
2023-01-13T01:42:05.870Z,8.10
2023-01-13T01:43:05.812Z,9.60
2023-01-13T01:44:05.825Z,9.30
2023-01-13T01:45:05.812Z,10.20
2023-01-13T01:46:05.796Z,9.00
2023-01-13T01:47:05.810Z,8.90
2023-01-13T01:48:05.760Z,8.50
2023-01-13T01:49:05.811Z,8.10
2023-01-13T01:50:05.761Z,7.30
2023-01-13T01:51:05.720Z,7.80
2023-01-13T01:52:05.707Z,7.20
2023-01-13T01:53:05.711Z,8.10
2023-01-13T01:54:05.703Z,7.60
2023-01-13T01:55:05.717Z,7.90
2023-01-13T01:56:05.657Z,7.20
2023-01-13T01:57:05.637Z,7.50
2023-01-13T01:58:05.647Z,8.40
2023-01-13T01:59:05.626Z,7.40
2023-01-13T02:00:05.652Z,7.00
2023-01-13T02:01:05.805Z,7.60
2023-01-13T02:02:05.700Z,7.80
2023-01-13T02:03:05.635Z,7.10
2023-01-13T02:04:05.563Z,6.50
2023-01-13T02:05:05.585Z,6.90
2023-01-13T02:06:05.522Z,6.70
2023-01-13T02:07:05.512Z,6.50
2023-01-13T02:08:05.550Z,6.40
2023-01-13T02:09:05.518Z,6.60
2023-01-13T02:10:05.517Z,6.80
2023-01-13T02:11:05.471Z,5.90
2023-01-13T02:12:05.437Z,6.70
2023-01-13T02:13:05.425Z,6.80
2023-01-13T02:14:05.448Z,6.10
2023-01-13T02:15:05.400Z,6.20
2023-01-13T02:16:05.432Z,6.30
2023-01-13T02:17:05.386Z,6.00
2023-01-13T02:18:05.386Z,5.90
2023-01-13T02:19:05.388Z,6.30
2023-01-13T02:20:05.358Z,6.60
2023-01-13T02:21:05.358Z,5.90
2023-01-13T02:22:05.307Z,6.30
2023-01-13T02:23:05.296Z,6.40
2023-01-13T02:24:05.348Z,6.90
2023-01-13T02:27:19.569Z,6.80
2023-01-13T02:28:20.521Z,6.90
2023-01-13T02:29:20.551Z,5.70
2023-01-13T02:30:20.486Z,6.30
2023-01-13T02:31:20.548Z,5.60
2023-01-13T02:32:20.507Z,5.80
2023-01-13T02:33:20.478Z,6.70
2023-01-13T02:34:20.436Z,6.00
2023-01-13T02:35:20.433Z,5.90
2023-01-13T02:36:20.457Z,5.70
2023-01-13T02:37:20.405Z,6.40
2023-01-13T02:38:20.426Z,5.70
2023-01-13T02:39:20.373Z,5.50
2023-01-13T02:40:20.400Z,8.90
2023-01-13T02:41:20.379Z,17.40
2023-01-13T02:42:20.345Z,13.70
2023-01-13T02:43:20.361Z,13.10
2023-01-13T02:44:20.310Z,9.20
2023-01-13T02:45:20.358Z,9.00
2023-01-13T02:46:20.307Z,7.60
2023-01-13T02:47:20.371Z,6.00
2023-01-13T02:48:20.260Z,8.70
2023-01-13T02:49:20.274Z,14.80
2023-01-13T02:50:20.259Z,10.70
2023-01-13T02:51:20.229Z,10.50
2023-01-13T02:52:20.230Z,8.10
2023-01-13T02:53:20.220Z,9.10
2023-01-13T02:54:20.209Z,8.80
2023-01-13T02:55:20.194Z,7.80
2023-01-13T02:56:20.175Z,6.40
2023-01-13T02:57:20.221Z,6.80
2023-01-13T02:58:20.144Z,6.70
2023-01-13T02:59:20.147Z,6.70
2023-01-13T03:00:20.164Z,8.20
2023-01-13T03:01:20.403Z,7.40
2023-01-13T03:02:20.438Z,7.40
2023-01-13T03:03:20.078Z,6.80
2023-01-13T03:04:20.099Z,7.70
2023-01-13T03:05:20.087Z,6.70
2023-01-13T03:06:20.025Z,6.10
2023-01-13T03:07:20.073Z,6.80
2023-01-13T03:08:20.021Z,6.70
2023-01-13T03:09:20.148Z,5.00
2023-01-13T03:10:20.002Z,5.70
2023-01-13T03:11:20.027Z,5.80
2023-01-13T03:12:19.988Z,5.30
2023-01-13T03:13:19.984Z,5.20
2023-01-13T03:14:19.906Z,5.00
2023-01-13T03:15:20.109Z,6.40
2023-01-13T03:16:19.918Z,6.70
2023-01-13T03:17:19.894Z,6.30
2023-01-13T03:18:19.860Z,6.60
2023-01-13T03:19:19.896Z,6.30
2023-01-13T03:20:19.862Z,6.40
2023-01-13T03:21:19.835Z,6.20
2023-01-13T03:22:19.855Z,7.30
2023-01-13T03:23:19.795Z,7.20
2023-01-13T03:24:19.806Z,6.50
2023-01-13T03:25:19.855Z,7.30
2023-01-13T03:26:19.802Z,7.20
2023-01-13T03:27:19.818Z,6.90
2023-01-13T03:28:19.769Z,7.00
2023-01-13T03:29:19.796Z,7.50
2023-01-13T03:30:19.734Z,7.50
2023-01-13T03:31:19.715Z,6.90
2023-01-13T03:32:19.737Z,6.50
2023-01-13T03:33:19.711Z,6.50
2023-01-13T03:34:19.641Z,6.40
2023-01-13T03:35:19.636Z,6.30
2023-01-13T03:36:19.635Z,7.40
2023-01-13T03:37:19.700Z,6.90
2023-01-13T03:38:19.601Z,7.10
2023-01-13T03:39:19.622Z,7.20
2023-01-13T03:40:19.591Z,7.60
2023-01-13T03:41:19.582Z,7.10
2023-01-13T03:42:19.634Z,10.80
2023-01-13T03:43:19.544Z,12.80
2023-01-13T03:44:19.513Z,11.20
2023-01-13T03:45:19.528Z,28.60
2023-01-13T03:46:19.559Z,31.40
2023-01-13T03:47:19.499Z,41.40
2023-01-13T03:48:19.495Z,31.50
2023-01-13T03:49:19.461Z,21.40
2023-01-13T03:50:19.455Z,28.60
2023-01-13T03:51:19.453Z,23.10
2023-01-13T03:52:19.414Z,15.80
2023-01-13T03:53:19.491Z,16.50
2023-01-13T03:54:19.382Z,14.70
2023-01-13T03:55:19.385Z,12.80
2023-01-13T03:56:19.420Z,10.20
2023-01-13T03:57:19.451Z,9.60
2023-01-13T03:58:19.427Z,8.90
2023-01-13T03:59:19.377Z,8.90
2023-01-13T04:00:19.336Z,8.00
2023-01-13T04:01:19.420Z,8.80
2023-01-13T04:02:19.358Z,7.80
2023-01-13T04:03:19.277Z,8.30
2023-01-13T04:04:19.249Z,7.10
2023-01-13T04:05:19.251Z,6.70
2023-01-13T04:06:19.250Z,6.00
2023-01-13T04:07:19.224Z,6.50
2023-01-13T04:08:19.318Z,6.20
2023-01-13T04:09:19.217Z,6.20
2023-01-13T04:10:19.172Z,6.70
2023-01-13T04:11:19.190Z,6.20
2023-01-13T04:12:19.151Z,6.20
2023-01-13T04:13:19.178Z,6.30
2023-01-13T04:14:19.130Z,6.90
2023-01-13T04:15:19.130Z,6.40
2023-01-13T04:16:19.115Z,7.20
2023-01-13T04:17:19.111Z,7.10
2023-01-13T04:18:19.061Z,7.50
2023-01-13T04:19:19.060Z,7.00
2023-01-13T04:20:19.038Z,7.50
2023-01-13T04:21:19.069Z,6.50
2023-01-13T04:22:19.051Z,6.00
2023-01-13T04:23:19.057Z,5.80
2023-01-13T04:24:19.024Z,6.00
2023-01-13T04:25:19.020Z,6.70
2023-01-13T04:26:18.986Z,8.30
2023-01-13T04:27:18.986Z,9.40
2023-01-13T04:28:18.974Z,9.00
2023-01-13T04:29:18.943Z,6.70
2023-01-13T04:30:18.928Z,6.30
2023-01-13T04:31:18.989Z,7.20
2023-01-13T04:32:18.920Z,6.70
2023-01-13T04:33:18.877Z,6.80
2023-01-13T04:34:18.884Z,7.80
2023-01-13T04:35:18.843Z,7.40
2023-01-13T04:36:18.826Z,7.30
2023-01-13T04:37:18.870Z,6.50
2023-01-13T04:38:18.813Z,8.00
2023-01-13T04:39:18.816Z,8.30
2023-01-13T04:40:18.776Z,13.30
2023-01-13T04:41:18.776Z,10.40
2023-01-13T04:42:18.771Z,8.30
2023-01-13T04:43:18.746Z,7.50
2023-01-13T04:44:18.716Z,7.80
2023-01-13T04:45:18.721Z,6.70
2023-01-13T04:46:18.729Z,6.50
2023-01-13T04:47:18.714Z,6.50
2023-01-13T04:48:18.686Z,6.40
2023-01-13T04:49:18.663Z,5.90
2023-01-13T04:50:18.634Z,5.50
2023-01-13T04:51:18.646Z,6.10
2023-01-13T04:52:18.647Z,5.00
2023-01-13T04:53:18.617Z,4.90
2023-01-13T04:54:18.598Z,4.80
2023-01-13T04:55:18.605Z,7.90
2023-01-13T04:56:18.592Z,5.70
2023-01-13T04:57:18.562Z,5.30
2023-01-13T04:58:18.541Z,5.50
2023-01-13T04:59:18.527Z,7.20
2023-01-13T05:00:18.537Z,6.20
2023-01-13T05:01:18.581Z,5.50
2023-01-13T05:02:18.555Z,6.30
2023-01-13T05:03:18.496Z,6.90
2023-01-13T05:04:18.472Z,6.60
2023-01-13T05:05:18.461Z,6.70
2023-01-13T05:06:18.453Z,5.60
2023-01-13T05:07:18.450Z,5.10
2023-01-13T05:08:18.394Z,7.10
2023-01-13T05:09:18.396Z,8.40
2023-01-13T05:10:18.371Z,8.30
2023-01-13T05:11:18.394Z,8.10
2023-01-13T05:12:18.344Z,8.60
2023-01-13T05:13:18.364Z,7.60
2023-01-13T05:14:18.316Z,7.40
2023-01-13T05:15:18.322Z,13.90
2023-01-13T05:16:18.320Z,15.30
2023-01-13T05:17:18.330Z,11.50
2023-01-13T05:18:18.274Z,11.80
2023-01-13T05:19:18.299Z,16.10
2023-01-13T05:20:18.273Z,10.90
2023-01-13T05:21:18.239Z,10.20
2023-01-13T05:22:18.218Z,13.20
2023-01-13T05:23:18.220Z,12.60
2023-01-13T05:24:18.215Z,11.80
2023-01-13T05:25:18.198Z,11.60
2023-01-13T05:26:18.158Z,10.50
2023-01-13T05:27:18.197Z,10.30
2023-01-13T05:28:18.138Z,8.80
2023-01-13T05:29:18.157Z,8.60
2023-01-13T05:30:18.119Z,13.30
2023-01-13T05:31:18.164Z,10.40
2023-01-13T05:32:18.106Z,10.40
2023-01-13T05:33:18.089Z,10.50
2023-01-13T05:34:18.084Z,10.70
2023-01-13T05:35:18.053Z,13.20
2023-01-13T05:36:18.052Z,10.40
2023-01-13T05:37:18.055Z,10.00
2023-01-13T05:38:18.087Z,9.00
2023-01-13T05:39:18.033Z,7.90
2023-01-13T05:40:17.979Z,8.40
2023-01-13T05:41:18.023Z,8.50
2023-01-13T05:42:17.965Z,10.40
2023-01-13T05:43:17.946Z,7.50
2023-01-13T05:44:17.924Z,6.90
2023-01-13T05:45:17.926Z,8.30
2023-01-13T05:46:18.096Z,7.50
2023-01-13T05:47:17.903Z,6.90
2023-01-13T05:48:17.879Z,7.10
2023-01-13T05:49:17.925Z,7.30
2023-01-13T05:50:17.854Z,6.40
2023-01-13T05:51:17.876Z,8.70
2023-01-13T05:52:17.823Z,7.50
2023-01-13T05:53:17.825Z,7.30
2023-01-13T05:54:17.834Z,6.30
2023-01-13T05:55:17.814Z,7.30
2023-01-13T05:56:17.801Z,8.00
2023-01-13T05:57:17.798Z,10.90
2023-01-13T05:58:17.739Z,11.40
2023-01-13T05:59:17.764Z,18.70
2023-01-13T06:00:17.744Z,29.20
2023-01-13T06:01:17.730Z,25.20
2023-01-13T06:02:17.691Z,19.10
2023-01-13T06:03:17.767Z,15.50
2023-01-13T06:04:17.698Z,10.90
2023-01-13T06:05:17.686Z,11.60
2023-01-13T06:06:17.682Z,5.70
2023-01-13T06:07:17.628Z,8.50
2023-01-13T06:08:17.638Z,10.00
2023-01-13T06:09:17.599Z,8.40
2023-01-13T06:10:17.609Z,7.50
2023-01-13T06:11:17.703Z,6.50
2023-01-13T06:12:17.570Z,5.10
2023-01-13T06:13:17.582Z,5.00
2023-01-13T06:14:17.548Z,5.70
2023-01-13T06:15:17.535Z,7.40
2023-01-13T06:16:17.595Z,6.80
2023-01-13T06:17:17.536Z,5.60
2023-01-13T06:18:17.475Z,6.30
2023-01-13T06:19:17.481Z,4.70
2023-01-13T06:20:17.465Z,5.20
2023-01-13T06:21:17.481Z,5.40
2023-01-13T06:22:17.441Z,5.60
2023-01-13T06:23:17.448Z,5.50
2023-01-13T06:24:17.427Z,6.50
2023-01-13T06:25:17.400Z,7.60
2023-01-13T06:26:17.388Z,5.00
2023-01-13T06:27:17.402Z,4.50
2023-01-13T06:28:17.369Z,15.70
2023-01-13T06:29:17.510Z,16.70
2023-01-13T06:30:17.344Z,14.30
2023-01-13T06:31:17.400Z,9.30
2023-01-13T06:32:17.338Z,7.30
2023-01-13T06:33:17.313Z,6.30
2023-01-13T06:34:17.260Z,5.70
2023-01-13T06:35:17.260Z,6.40
2023-01-13T06:36:17.293Z,7.10
2023-01-13T06:37:17.253Z,6.90
2023-01-13T06:38:17.212Z,16.70
2023-01-13T06:39:17.245Z,7.90
2023-01-13T06:40:17.185Z,7.50
2023-01-13T06:41:17.207Z,8.20
2023-01-13T06:42:17.202Z,6.00
2023-01-13T06:43:17.643Z,5.60
2023-01-13T06:44:17.144Z,5.60
2023-01-13T06:45:17.130Z,6.00
2023-01-13T06:46:17.137Z,5.30
2023-01-13T06:47:17.123Z,5.60
2023-01-13T06:48:17.104Z,6.40
2023-01-13T06:49:17.207Z,6.00
2023-01-13T06:50:17.046Z,5.50
2023-01-13T06:51:17.067Z,5.90
2023-01-13T06:52:17.043Z,6.00
2023-01-13T06:53:17.051Z,5.90
2023-01-13T06:54:17.018Z,7.20
2023-01-13T06:55:17.033Z,8.20
2023-01-13T06:56:17.005Z,6.40
2023-01-13T06:57:16.975Z,5.70
2023-01-13T06:58:16.975Z,6.10
2023-01-13T06:59:16.941Z,6.00
2023-01-13T07:00:16.925Z,5.60
2023-01-13T07:01:17.012Z,5.90
2023-01-13T07:02:17.047Z,5.30
2023-01-13T07:03:16.930Z,7.10
2023-01-13T07:04:16.932Z,8.50
2023-01-13T07:05:16.886Z,7.30
2023-01-13T07:06:16.878Z,7.40
2023-01-13T07:07:16.896Z,16.60
2023-01-13T07:08:16.822Z,7.70
2023-01-13T07:09:16.828Z,5.30
2023-01-13T07:10:16.799Z,6.90
2023-01-13T07:11:16.817Z,5.10
2023-01-13T07:12:16.769Z,5.40
2023-01-13T07:13:16.736Z,4.60
2023-01-13T07:14:16.771Z,5.10
2023-01-13T07:15:16.776Z,4.80
2023-01-13T07:16:16.841Z,4.50
2023-01-13T07:17:16.691Z,6.40
2023-01-13T07:18:16.691Z,7.40
2023-01-13T07:19:16.699Z,12.90
2023-01-13T07:20:16.662Z,7.40
2023-01-13T07:21:16.691Z,6.30
2023-01-13T07:22:16.653Z,5.70
2023-01-13T07:23:16.700Z,5.50
2023-01-13T07:24:16.617Z,6.20
2023-01-13T07:25:16.669Z,5.50
2023-01-13T07:26:16.599Z,5.00
2023-01-13T07:27:16.571Z,5.80
2023-01-13T07:28:16.590Z,5.00
2023-01-13T07:29:16.546Z,7.10
2023-01-13T07:30:16.552Z,26.50
2023-01-13T07:31:16.589Z,7.80
2023-01-13T07:32:16.502Z,25.30
2023-01-13T07:33:16.523Z,25.70
2023-01-13T07:34:16.500Z,25.00
2023-01-13T07:35:16.482Z,8.40
2023-01-13T07:36:16.484Z,30.90
2023-01-13T07:37:16.444Z,83.10
2023-01-13T07:38:16.456Z,6.30
2023-01-13T07:39:16.422Z,5.80
2023-01-13T07:40:16.391Z,6.60
2023-01-13T07:41:16.381Z,25.20
2023-01-13T07:42:16.412Z,37.90
2023-01-13T07:43:16.343Z,11.40
2023-01-13T07:44:16.378Z,44.60
2023-01-13T07:45:16.342Z,4.20
2023-01-13T07:46:16.393Z,4.60
2023-01-13T07:47:16.337Z,20.70
2023-01-13T07:48:16.307Z,4.30
2023-01-13T07:49:16.268Z,5.10
2023-01-13T07:50:16.260Z,12.80
2023-01-13T07:51:16.271Z,9.40
2023-01-13T07:52:16.287Z,5.20
2023-01-13T07:53:16.242Z,7.00
2023-01-13T07:54:16.199Z,17.50
2023-01-13T07:55:16.217Z,18.10
2023-01-13T07:56:16.224Z,21.20
2023-01-13T07:57:16.180Z,4.50
2023-01-13T07:58:16.164Z,3.40
2023-01-13T07:59:16.176Z,3.90
2023-01-13T08:00:16.191Z,5.40
2023-01-13T08:01:16.223Z,3.50
2023-01-13T08:02:16.391Z,3.80
2023-01-13T08:03:16.091Z,3.80
2023-01-13T08:04:16.103Z,3.30
2023-01-13T08:05:16.066Z,3.80
2023-01-13T08:06:16.047Z,3.60
2023-01-13T08:07:16.095Z,3.30
2023-01-13T08:08:16.059Z,4.00
2023-01-13T08:09:16.020Z,12.80
2023-01-13T08:10:16.002Z,27.90
2023-01-13T08:11:15.970Z,5.60
2023-01-13T08:12:15.964Z,8.30
2023-01-13T08:13:15.996Z,8.50
2023-01-13T08:14:15.950Z,6.40
2023-01-13T08:15:15.944Z,5.10
2023-01-13T08:16:15.958Z,4.70
2023-01-13T08:17:15.920Z,5.20
2023-01-13T08:18:15.882Z,4.50
2023-01-13T08:19:15.885Z,4.10
2023-01-13T08:20:15.903Z,8.40
2023-01-13T08:21:15.865Z,9.80
2023-01-13T08:22:15.836Z,21.80
2023-01-13T08:23:15.807Z,4.80
2023-01-13T08:24:15.850Z,4.30
2023-01-13T08:25:15.851Z,3.80
2023-01-13T08:26:15.793Z,6.10
2023-01-13T08:27:15.749Z,4.20
2023-01-13T08:28:15.830Z,3.60
2023-01-13T08:29:15.780Z,6.20
2023-01-13T08:30:15.756Z,5.20
2023-01-13T08:31:15.877Z,5.00
2023-01-13T08:32:15.709Z,5.00
2023-01-13T08:33:15.738Z,4.10
2023-01-13T08:34:15.660Z,3.60
2023-01-13T08:35:15.661Z,4.00
2023-01-13T08:36:15.669Z,4.00
2023-01-13T08:37:15.645Z,3.50
2023-01-13T08:38:15.626Z,4.20
2023-01-13T08:39:15.606Z,4.10
2023-01-13T08:40:15.619Z,4.60
2023-01-13T08:41:15.631Z,9.40
2023-01-13T08:42:15.567Z,6.80
2023-01-13T08:43:15.559Z,5.70
2023-01-13T08:44:15.549Z,37.80
2023-01-13T08:45:15.555Z,16.80
2023-01-13T08:46:15.562Z,20.40
2023-01-13T08:47:15.556Z,6.70
2023-01-13T08:48:15.486Z,31.30
2023-01-13T08:49:15.491Z,11.50
2023-01-13T08:50:15.454Z,140.10
2023-01-13T08:51:15.475Z,217.00
2023-01-13T08:52:15.434Z,179.60
2023-01-13T08:53:15.451Z,72.90
2023-01-13T08:54:15.411Z,56.10
2023-01-13T08:55:15.401Z,93.70
2023-01-13T08:56:15.406Z,79.60
2023-01-13T08:57:15.454Z,38.40
2023-01-13T08:58:16.308Z,33.50
2023-01-13T08:59:15.334Z,32.50
2023-01-13T09:00:15.323Z,18.70
2023-01-13T09:01:15.517Z,10.70
2023-01-13T09:02:15.423Z,10.30
2023-01-13T09:03:15.262Z,8.90
2023-01-13T09:04:15.298Z,5.60
2023-01-13T09:05:17.665Z,7.60
2023-01-13T09:06:15.267Z,7.80
2023-01-13T09:07:15.230Z,6.90
2023-01-13T09:08:15.214Z,6.00
2023-01-13T09:09:15.214Z,7.90
2023-01-13T09:10:15.225Z,7.60
2023-01-13T09:11:15.207Z,7.30
2023-01-13T09:12:15.185Z,10.30
2023-01-13T09:13:15.171Z,15.10
2023-01-13T09:14:15.138Z,21.10
2023-01-13T09:15:15.148Z,6.70
2023-01-13T09:16:15.160Z,8.90
2023-01-13T09:17:15.166Z,7.50
2023-01-13T09:18:15.089Z,5.40
2023-01-13T09:19:15.068Z,8.40
2023-01-13T09:20:15.067Z,4.50
2023-01-13T09:21:15.035Z,8.30
2023-01-13T09:22:15.093Z,30.50
2023-01-13T09:23:15.019Z,4.20
2023-01-13T09:24:15.015Z,29.20
2023-01-13T09:25:14.991Z,159.40
2023-01-13T09:26:14.973Z,9.70
2023-01-13T09:27:14.994Z,3.80
2023-01-13T09:28:14.949Z,3.90
2023-01-13T09:29:14.986Z,5.00
2023-01-13T09:30:14.924Z,3.90
2023-01-13T09:31:14.981Z,3.60
2023-01-13T09:32:14.931Z,12.40
2023-01-13T09:33:14.914Z,10.20
2023-01-13T09:34:14.862Z,14.00
2023-01-13T09:35:14.855Z,14.90
2023-01-13T09:36:14.872Z,9.40
2023-01-13T09:37:14.831Z,7.10
2023-01-13T09:38:14.829Z,6.10
2023-01-13T09:39:14.817Z,5.30
2023-01-13T09:40:14.793Z,5.40
2023-01-13T09:41:14.757Z,5.90
2023-01-13T09:42:14.782Z,5.40
2023-01-13T09:43:14.762Z,5.90
2023-01-13T09:44:14.757Z,6.10
2023-01-13T09:45:14.755Z,5.30
2023-01-13T09:46:14.731Z,5.60
2023-01-13T09:47:14.679Z,5.90
2023-01-13T09:48:14.705Z,6.00
2023-01-13T09:49:14.658Z,6.30
2023-01-13T09:50:14.662Z,5.70
2023-01-13T09:51:14.772Z,7.90
2023-01-13T09:52:14.735Z,13.10
2023-01-13T09:53:14.615Z,7.20
2023-01-13T09:54:14.600Z,5.90
2023-01-13T09:55:14.635Z,6.20
2023-01-13T09:56:14.572Z,5.30
2023-01-13T09:57:14.582Z,8.60
2023-01-13T09:58:14.587Z,5.90
2023-01-13T09:59:14.533Z,5.90
2023-01-13T10:00:14.544Z,8.10
2023-01-13T10:01:14.595Z,6.90
2023-01-13T10:02:14.491Z,9.50
2023-01-13T10:03:14.613Z,15.00
2023-01-13T10:04:14.497Z,16.10
2023-01-13T10:05:14.473Z,12.20
2023-01-13T10:06:14.508Z,12.20
2023-01-13T10:07:14.476Z,10.10
2023-01-13T10:08:14.455Z,6.10
2023-01-13T10:09:14.452Z,4.70
2023-01-13T10:10:14.381Z,4.10
2023-01-13T10:11:14.409Z,4.60
2023-01-13T10:12:14.359Z,3.40
2023-01-13T10:13:14.359Z,4.50
2023-01-13T10:14:14.346Z,3.40
2023-01-13T10:15:14.341Z,3.50
2023-01-13T10:16:14.382Z,3.60
2023-01-13T10:17:14.311Z,3.40
2023-01-13T10:18:14.298Z,4.00
2023-01-13T10:19:14.288Z,3.80
2023-01-13T10:20:14.251Z,4.60
2023-01-13T10:21:14.265Z,4.80
2023-01-13T10:22:14.231Z,4.40
2023-01-13T10:23:14.460Z,4.30
2023-01-13T10:24:14.235Z,4.00
2023-01-13T10:25:14.177Z,4.50
2023-01-13T10:26:14.296Z,4.20
2023-01-13T10:27:14.151Z,3.80
2023-01-13T10:28:14.190Z,4.00
2023-01-13T10:29:14.126Z,4.00
2023-01-13T10:30:14.131Z,4.90
2023-01-13T10:31:14.169Z,6.40
2023-01-13T10:32:14.102Z,3.30
2023-01-13T10:33:14.096Z,10.50
2023-01-13T10:34:14.073Z,3.60
2023-01-13T10:35:14.059Z,3.40
2023-01-13T10:36:14.073Z,3.90
2023-01-13T10:37:14.013Z,4.70
2023-01-13T10:38:14.015Z,4.40
2023-01-13T10:39:14.006Z,4.60
2023-01-13T10:40:14.052Z,8.60
2023-01-13T10:41:13.961Z,5.70
2023-01-13T10:42:13.990Z,5.60
2023-01-13T10:43:13.937Z,9.60
2023-01-13T10:44:13.930Z,28.40
2023-01-13T10:45:13.936Z,9.40
2023-01-13T10:46:13.917Z,5.50
2023-01-13T10:47:13.872Z,7.20
2023-01-13T10:48:13.872Z,13.30
2023-01-13T10:49:13.884Z,10.70
2023-01-13T10:50:13.847Z,6.10
2023-01-13T10:51:13.825Z,62.90
2023-01-13T10:52:13.872Z,146.00
2023-01-13T10:53:13.811Z,42.90
2023-01-13T10:54:13.832Z,38.20
2023-01-13T10:55:13.797Z,18.30
2023-01-13T10:56:13.767Z,24.00
2023-01-13T10:57:13.746Z,15.80
2023-01-13T10:58:13.734Z,16.00
2023-01-13T10:59:13.763Z,20.70
2023-01-13T11:00:13.719Z,16.70
2023-01-13T11:01:13.745Z,17.00
2023-01-13T11:02:25.220Z,26.90
2023-01-13T11:03:13.677Z,21.70
2023-01-13T11:04:13.645Z,6.80
2023-01-13T11:05:13.750Z,8.50
2023-01-13T11:06:13.643Z,9.90
2023-01-13T11:07:13.621Z,8.30
2023-01-13T11:08:13.597Z,7.00
2023-01-13T11:09:13.617Z,11.40
2023-01-13T11:10:13.608Z,3.90
2023-01-13T11:11:13.649Z,3.70
2023-01-13T11:12:13.541Z,3.90
2023-01-13T11:13:13.556Z,3.00
2023-01-13T11:14:13.541Z,3.40
2023-01-13T11:15:13.560Z,3.10
2023-01-13T11:16:13.671Z,2.90
2023-01-13T11:17:13.488Z,3.10
2023-01-13T11:18:13.454Z,2.70
2023-01-13T11:19:13.483Z,4.50
2023-01-13T11:20:13.455Z,4.20
2023-01-13T11:21:13.419Z,3.10
2023-01-13T11:22:13.411Z,3.60
2023-01-13T11:23:13.417Z,3.30
2023-01-13T11:24:13.377Z,3.50
2023-01-13T11:25:13.402Z,3.20
2023-01-13T11:26:13.365Z,3.20
2023-01-13T11:27:13.333Z,3.50
2023-01-13T11:28:13.330Z,3.80
2023-01-13T11:29:13.330Z,4.90
2023-01-13T11:30:13.311Z,10.00
2023-01-13T11:31:13.372Z,4.40
2023-01-13T11:32:13.268Z,3.70
2023-01-13T11:33:13.280Z,4.20
2023-01-13T11:34:13.253Z,3.50
2023-01-13T11:35:13.231Z,4.90
2023-01-13T11:36:13.212Z,5.70
2023-01-13T11:37:13.242Z,7.80
2023-01-13T11:38:13.204Z,8.30
2023-01-13T11:39:13.173Z,6.10
2023-01-13T11:40:13.166Z,4.40
2023-01-13T11:41:13.164Z,3.30
2023-01-13T11:42:13.185Z,3.50
2023-01-13T11:43:13.122Z,3.20
2023-01-13T11:44:13.129Z,2.80
2023-01-13T11:45:13.113Z,3.00
2023-01-13T11:46:13.100Z,3.20
2023-01-13T11:47:13.110Z,4.40
2023-01-13T11:48:13.101Z,5.40
2023-01-13T11:49:13.046Z,6.50
2023-01-13T11:50:13.020Z,6.90
2023-01-13T11:51:13.025Z,7.20
2023-01-13T11:52:13.010Z,8.20
2023-01-13T11:53:13.034Z,5.00
2023-01-13T11:54:12.968Z,3.80
2023-01-13T11:55:12.967Z,3.20
2023-01-13T11:56:13.115Z,4.30
2023-01-13T11:57:13.005Z,5.80
2023-01-13T11:58:12.923Z,4.60
2023-01-13T11:59:12.918Z,4.80
2023-01-13T12:00:12.889Z,3.80
2023-01-13T12:01:12.904Z,3.80
2023-01-13T12:02:12.967Z,3.90
2023-01-13T12:03:12.905Z,3.50
2023-01-13T12:04:12.836Z,8.80
2023-01-13T12:05:12.816Z,5.90
2023-01-13T12:06:12.803Z,4.80
2023-01-13T12:07:12.844Z,5.70
2023-01-13T12:08:12.811Z,4.30
2023-01-13T12:09:12.783Z,3.50
2023-01-13T12:10:13.639Z,4.10
2023-01-13T12:11:12.755Z,3.30
2023-01-13T12:12:12.755Z,3.20
2023-01-13T12:13:12.742Z,10.90
2023-01-13T12:14:12.687Z,9.80
2023-01-13T12:15:12.726Z,2.50
2023-01-13T12:16:12.730Z,2.60
2023-01-13T12:17:12.691Z,3.20
2023-01-13T12:18:12.646Z,3.40
2023-01-13T12:19:12.687Z,3.30
2023-01-13T12:20:12.622Z,3.30
2023-01-13T12:21:12.651Z,2.80
2023-01-13T12:22:12.601Z,3.00
2023-01-13T12:23:12.577Z,4.00
2023-01-13T12:24:12.577Z,6.90
2023-01-13T12:25:12.603Z,12.90
2023-01-13T12:26:12.556Z,12.30
2023-01-13T12:27:12.547Z,11.50
2023-01-13T12:28:12.505Z,9.00
2023-01-13T12:29:12.504Z,11.80
2023-01-13T12:30:12.489Z,7.50
2023-01-13T12:31:12.601Z,4.10
2023-01-13T12:32:12.505Z,3.40
2023-01-13T12:33:12.442Z,3.10
2023-01-13T12:34:12.457Z,3.50
2023-01-13T12:35:12.422Z,3.40
2023-01-13T12:36:12.386Z,3.30
2023-01-13T12:37:12.451Z,3.10
2023-01-13T12:38:12.362Z,7.60
2023-01-13T12:39:12.365Z,4.80
2023-01-13T12:40:12.354Z,53.30
2023-01-13T12:41:12.377Z,10.90
2023-01-13T12:42:12.320Z,5.90
2023-01-13T12:43:12.331Z,7.30
2023-01-13T12:44:12.309Z,7.10
2023-01-13T12:45:12.369Z,6.70
2023-01-13T12:46:12.299Z,5.50
2023-01-13T12:47:12.258Z,4.50
2023-01-13T12:48:12.235Z,6.60
2023-01-13T12:49:12.248Z,5.30
2023-01-13T12:50:12.259Z,4.70
2023-01-13T12:51:12.204Z,3.90
2023-01-13T12:52:12.199Z,4.70
2023-01-13T12:53:12.177Z,6.80
2023-01-13T12:54:12.177Z,5.80
2023-01-13T12:55:12.147Z,5.30
2023-01-13T12:56:12.112Z,5.40
2023-01-13T12:57:12.111Z,5.50
2023-01-13T12:58:12.107Z,5.50
2023-01-13T12:59:12.122Z,4.50
2023-01-13T13:00:12.097Z,5.80
2023-01-13T13:01:12.144Z,5.00
2023-01-13T13:02:12.537Z,3.80
2023-01-13T13:03:12.089Z,3.40
2023-01-13T13:04:12.019Z,3.40
2023-01-13T13:05:12.020Z,5.60
2023-01-13T13:06:11.992Z,3.80
2023-01-13T13:07:12.006Z,3.80
2023-01-13T13:08:11.974Z,4.00
2023-01-13T13:09:11.973Z,5.00
2023-01-13T13:10:11.957Z,4.50
2023-01-13T13:11:11.958Z,4.50
2023-01-13T13:12:11.935Z,4.40
2023-01-13T13:13:11.901Z,4.10